Terminal Aerodrome Forecast
Issued by NWS Sterling, VA

Current Version | Previous Version | Graphics & Text | Print | Product List | Glossary On
Versions: 1 2 3 4 5 6 7 8 9 10 11 12 13 14 15 16 17 18 19 20 21 22 23
000
FTUS41 KLWX 251501 AAA
TAFIAD
TAF AMD
KIAD 251501Z 2515/2618 VRB04KT P6SM BKN008 OVC015
     FM251600 18006KT P6SM BKN015
     FM251800 21006KT P6SM BKN030
     FM252000 21007KT P6SM -SHRA VCTS BKN045CB
     FM260100 24006KT P6SM BKN045
     FM261400 28012G20KT P6SM BKN040=

USA.gov is the U.S. government's official web portal to all federal, state and local government web resources and services.